createdAt,value
2022-08-30T00:01:06.792Z,43.90
2022-08-30T00:03:41.127Z,44.80
2022-08-30T00:06:09.645Z,46.30
2022-08-30T00:08:38.069Z,46.10
2022-08-30T00:11:06.763Z,46.90
2022-08-30T00:13:33.698Z,47.30
2022-08-30T00:16:00.757Z,46.90
2022-08-30T00:18:28.098Z,47.90
2022-08-30T00:20:55.945Z,48.30
2022-08-30T00:23:23.343Z,48.90
2022-08-30T00:25:50.367Z,49.40
2022-08-30T00:28:17.672Z,49.80
2022-08-30T00:30:45.878Z,51.40
2022-08-30T00:33:14.290Z,51.00
2022-08-30T00:35:41.841Z,51.50
2022-08-30T00:38:09.830Z,52.50
2022-08-30T00:40:37.912Z,52.50
2022-08-30T00:43:08.855Z,53.50
2022-08-30T00:45:41.103Z,54.00
2022-08-30T00:48:08.820Z,54.40
2022-08-30T00:50:43.917Z,55.70
2022-08-30T00:53:16.401Z,54.70
2022-08-30T00:55:44.705Z,57.40
2022-08-30T00:58:21.277Z,58.70
2022-08-30T01:00:54.292Z,59.70
2022-08-30T01:03:21.704Z,59.90
2022-08-30T01:05:51.830Z,60.40
2022-08-30T01:08:24.170Z,61.20
2022-08-30T01:10:53.018Z,59.50
2022-08-30T01:13:22.774Z,60.50
2022-08-30T01:15:50.692Z,60.60
2022-08-30T01:18:18.961Z,62.10
2022-08-30T01:21:31.779Z,62.00
2022-08-30T01:24:00.838Z,63.50
2022-08-30T01:26:29.902Z,62.60
2022-08-30T01:29:02.351Z,64.60
2022-08-30T01:31:29.350Z,64.10
2022-08-30T01:33:56.328Z,64.20
2022-08-30T01:36:24.275Z,64.00
2022-08-30T01:38:59.491Z,63.10
2022-08-30T01:41:32.816Z,64.90
2022-08-30T01:44:02.996Z,64.80
2022-08-30T01:46:37.582Z,65.10
2022-08-30T01:49:08.627Z,65.60
2022-08-30T01:51:35.704Z,66.00
2022-08-30T01:54:02.761Z,66.30
2022-08-30T01:56:30.237Z,66.90
2022-08-30T01:59:02.661Z,67.90
2022-08-30T02:01:32.998Z,68.40
2022-08-30T02:04:00.213Z,69.00
2022-08-30T02:06:27.489Z,70.20
2022-08-30T02:08:54.644Z,70.40
2022-08-30T02:11:21.691Z,70.90
2022-08-30T02:13:48.691Z,70.50
2022-08-30T02:16:20.590Z,71.70
2022-08-30T02:18:47.566Z,70.20
2022-08-30T02:21:15.285Z,71.40
2022-08-30T02:23:42.870Z,71.60
2022-08-30T02:26:12.283Z,71.60
2022-08-30T02:28:49.701Z,72.10
2022-08-30T02:31:19.472Z,72.30
2022-08-30T02:33:50.377Z,76.20
2022-08-30T02:36:18.267Z,77.40
2022-08-30T02:38:46.248Z,77.00
2022-08-30T02:41:13.389Z,76.40
2022-08-30T02:43:40.328Z,78.70
2022-08-30T02:46:07.329Z,79.20
2022-08-30T02:48:34.394Z,78.00
2022-08-30T02:51:07.319Z,79.00
2022-08-30T02:53:37.901Z,80.10
2022-08-30T02:56:08.753Z,80.90
2022-08-30T02:58:36.226Z,81.00
2022-08-30T03:01:03.881Z,81.00
2022-08-30T03:03:30.895Z,83.20
2022-08-30T03:05:58.090Z,84.40
2022-08-30T03:08:25.083Z,84.50
2022-08-30T03:10:52.185Z,86.50
2022-08-30T03:13:19.168Z,88.40
2022-08-30T03:15:48.120Z,88.30
2022-08-30T03:18:15.003Z,88.60
2022-08-30T03:20:42.225Z,90.00
2022-08-30T03:23:21.493Z,91.10
2022-08-30T03:25:49.070Z,91.40
2022-08-30T03:28:16.114Z,91.60
2022-08-30T03:30:43.083Z,91.70
2022-08-30T03:33:12.785Z,91.90
2022-08-30T03:35:39.741Z,92.70
2022-08-30T03:38:06.816Z,93.00
2022-08-30T03:40:33.813Z,93.20
2022-08-30T03:43:01.070Z,93.70
2022-08-30T03:45:28.543Z,94.00
2022-08-30T03:47:55.485Z,94.20
2022-08-30T03:50:22.788Z,94.00
2022-08-30T03:52:49.729Z,93.90
2022-08-30T03:55:16.715Z,93.60
2022-08-30T03:57:43.975Z,93.90
2022-08-30T04:00:12.662Z,93.70
2022-08-30T04:02:40.267Z,93.90
2022-08-30T04:05:08.402Z,94.90
2022-08-30T04:07:37.072Z,95.60
2022-08-30T04:10:06.377Z,96.00
2022-08-30T04:12:33.378Z,97.00
2022-08-30T04:15:00.255Z,96.90
2022-08-30T04:17:27.512Z,97.00
2022-08-30T04:19:54.517Z,97.40
2022-08-30T04:22:22.056Z,97.30
2022-08-30T04:24:48.948Z,98.20
2022-08-30T04:27:15.815Z,98.60
2022-08-30T04:29:43.873Z,98.40
2022-08-30T04:32:10.800Z,99.70
2022-08-30T04:34:38.397Z,99.90
2022-08-30T04:37:05.490Z,99.90
2022-08-30T04:39:36.860Z,99.90
2022-08-30T04:42:04.253Z,99.90
2022-08-30T04:44:32.125Z,99.90
2022-08-30T04:46:59.193Z,99.90
2022-08-30T04:49:26.173Z,99.90
2022-08-30T04:51:53.155Z,99.90
2022-08-30T04:54:20.032Z,99.90
2022-08-30T04:56:47.006Z,99.90
2022-08-30T04:59:14.264Z,99.90
2022-08-30T05:01:45.036Z,99.70
2022-08-30T05:04:13.992Z,98.60
2022-08-30T05:06:41.013Z,97.50
2022-08-30T05:09:08.061Z,96.90
2022-08-30T05:11:35.027Z,96.10
2022-08-30T05:14:02.008Z,95.30
2022-08-30T05:16:29.124Z,93.80
2022-08-30T05:18:56.160Z,94.00
2022-08-30T05:21:26.976Z,92.70
2022-08-30T05:23:56.323Z,92.10
2022-08-30T05:26:30.147Z,90.90
2022-08-30T05:28:57.691Z,90.60
2022-08-30T05:31:30.072Z,89.90
2022-08-30T05:33:57.170Z,85.30
2022-08-30T05:36:27.156Z,80.70
2022-08-30T05:38:54.925Z,75.20
2022-08-30T05:41:23.223Z,75.90
2022-08-30T05:43:58.755Z,75.90
2022-08-30T05:46:29.587Z,68.30
2022-08-30T05:48:57.548Z,62.70
2022-08-30T05:51:28.814Z,59.30
2022-08-30T05:53:57.397Z,60.70
2022-08-30T05:56:37.430Z,58.10
2022-08-30T05:59:07.224Z,59.20
2022-08-30T06:01:40.613Z,61.80
2022-08-30T06:04:10.263Z,61.80
2022-08-30T06:06:39.386Z,58.40
2022-08-30T06:09:08.359Z,54.40
2022-08-30T06:11:36.475Z,50.50
2022-08-30T06:14:04.297Z,51.30
2022-08-30T06:16:31.844Z,46.40
2022-08-30T06:19:00.217Z,48.40
2022-08-30T06:21:30.224Z,46.70
2022-08-30T06:23:58.197Z,44.80
2022-08-30T06:26:26.395Z,36.70
2022-08-30T06:28:54.723Z,36.30
2022-08-30T06:31:23.571Z,39.00
2022-08-30T06:33:50.770Z,34.60
2022-08-30T06:36:23.806Z,36.60
2022-08-30T06:38:53.995Z,30.20
2022-08-30T06:41:24.298Z,30.30
2022-08-30T06:43:52.183Z,28.70
2022-08-30T06:46:22.700Z,30.80
2022-08-30T06:48:50.014Z,25.80
2022-08-30T06:51:22.027Z,29.30
2022-08-30T06:53:50.354Z,26.60
2022-08-30T06:56:18.976Z,24.80
2022-08-30T06:58:46.797Z,27.90
2022-08-30T07:01:17.452Z,28.60
2022-08-30T07:03:44.513Z,27.40
2022-08-30T07:06:11.753Z,25.20
2022-08-30T07:08:39.082Z,24.40
2022-08-30T07:11:07.713Z,18.40
2022-08-30T07:13:36.028Z,23.50
2022-08-30T07:16:10.295Z,23.60
2022-08-30T07:18:54.934Z,18.60
2022-08-30T07:21:32.584Z,19.20
2022-08-30T07:24:00.699Z,22.20
2022-08-30T07:26:32.154Z,20.90
2022-08-30T07:28:59.490Z,21.20
2022-08-30T07:31:26.774Z,21.10
2022-08-30T07:33:54.520Z,19.90
2022-08-30T07:36:22.670Z,15.40
2022-08-30T07:38:50.980Z,11.90
2022-08-30T07:41:29.775Z,5.60
2022-08-30T07:43:57.541Z,6.30
2022-08-30T07:46:26.309Z,5.20
2022-08-30T07:48:55.253Z,2.80
2022-08-30T07:51:26.058Z,3.20
2022-08-30T07:53:53.827Z,4.90
2022-08-30T07:56:21.487Z,2.50
2022-08-30T07:58:48.771Z,3.00
2022-08-30T08:01:17.159Z,1.00
2022-08-30T08:03:47.450Z,1.00
2022-08-30T08:06:16.738Z,1.00
2022-08-30T08:08:45.593Z,1.00
2022-08-30T08:11:28.342Z,5.50
2022-08-30T08:13:57.746Z,6.40
2022-08-30T08:16:30.134Z,7.60
2022-08-30T08:18:57.796Z,4.00
2022-08-30T08:21:26.294Z,2.30
2022-08-30T08:23:53.833Z,1.90
2022-08-30T08:26:21.508Z,2.60
2022-08-30T08:28:48.836Z,2.90
2022-08-30T08:31:23.579Z,2.10
2022-08-30T08:33:55.701Z,4.40
2022-08-30T08:36:22.930Z,4.60
2022-08-30T08:38:50.041Z,4.00
2022-08-30T08:41:40.048Z,2.40
2022-08-30T08:45:03.125Z,4.90
2022-08-30T08:48:04.253Z,1.00
2022-08-30T08:50:32.190Z,1.00
2022-08-30T08:53:50.709Z,1.00
2022-08-30T08:56:19.397Z,1.00
2022-08-30T08:58:48.948Z,1.00
2022-08-30T09:01:38.635Z,1.00
2022-08-30T09:04:20.642Z,1.00
2022-08-30T09:07:25.099Z,1.00
2022-08-30T09:09:52.427Z,1.00
2022-08-30T09:12:20.507Z,1.00
2022-08-30T09:14:55.754Z,1.00
2022-08-30T09:17:23.545Z,1.00
2022-08-30T09:20:08.270Z,1.00
2022-08-30T09:22:38.621Z,1.00
2022-08-30T09:25:28.766Z,1.00
2022-08-30T09:28:13.181Z,1.00
2022-08-30T09:30:50.206Z,1.00
2022-08-30T09:33:21.458Z,1.00
2022-08-30T09:35:52.277Z,1.00
2022-08-30T09:38:30.379Z,1.00
2022-08-30T09:41:01.225Z,1.00
2022-08-30T09:43:33.821Z,1.00
2022-08-30T09:46:10.813Z,1.00
2022-08-30T09:48:45.401Z,1.00
2022-08-30T09:51:30.691Z,1.00
2022-08-30T09:54:25.557Z,1.00
2022-08-30T09:57:18.528Z,1.00
2022-08-30T10:00:04.436Z,1.00
2022-08-30T10:03:34.856Z,1.00
2022-08-30T10:06:18.806Z,1.00
2022-08-30T10:09:19.558Z,1.00
2022-08-30T10:12:25.149Z,1.00
2022-08-30T10:15:02.780Z,1.00
2022-08-30T10:17:44.838Z,1.00
2022-08-30T10:20:52.899Z,1.00
2022-08-30T10:23:25.320Z,1.00
2022-08-30T10:26:13.045Z,1.00
2022-08-30T10:28:50.349Z,1.00
2022-08-30T10:31:43.002Z,1.00
2022-08-30T10:34:20.965Z,1.00
2022-08-30T10:37:04.149Z,1.00
2022-08-30T10:39:39.225Z,1.00
2022-08-30T10:42:13.045Z,1.00
2022-08-30T10:44:48.284Z,1.00
2022-08-30T10:48:12.318Z,1.00
2022-08-30T10:50:44.233Z,1.00
2022-08-30T10:53:19.900Z,1.00
2022-08-30T10:55:54.914Z,1.00
2022-08-30T10:58:22.264Z,1.00
2022-08-30T11:01:46.400Z,1.00
2022-08-30T11:05:02.505Z,1.00
2022-08-30T11:08:03.629Z,1.00
2022-08-30T11:10:49.435Z,1.00
2022-08-30T11:13:29.910Z,1.00
2022-08-30T11:16:19.318Z,1.00
2022-08-30T11:18:52.117Z,1.00
2022-08-30T11:21:39.794Z,1.00
2022-08-30T11:24:19.853Z,1.00
2022-08-30T11:26:58.969Z,1.00
2022-08-30T11:29:45.219Z,1.00
2022-08-30T11:32:24.819Z,1.00
2022-08-30T11:34:57.757Z,1.00
2022-08-30T11:37:42.357Z,1.00
2022-08-30T11:40:31.367Z,1.00
2022-08-30T11:42:58.402Z,1.00
2022-08-30T11:45:47.982Z,1.00
2022-08-30T11:48:53.479Z,1.00
2022-08-30T11:52:32.203Z,1.00
2022-08-30T11:55:37.181Z,1.00
2022-08-30T11:58:40.568Z,1.00
2022-08-30T12:01:49.675Z,1.00
2022-08-30T12:04:47.182Z,1.00
2022-08-30T12:07:52.535Z,1.00
2022-08-30T12:10:35.597Z,1.00
2022-08-30T12:13:02.649Z,1.00
2022-08-30T12:16:14.829Z,1.00
2022-08-30T12:19:00.973Z,1.00
2022-08-30T12:21:44.949Z,1.00
2022-08-30T12:24:36.683Z,1.00
2022-08-30T12:27:23.474Z,1.00
2022-08-30T12:29:57.613Z,1.00
2022-08-30T12:32:27.614Z,1.00
2022-08-30T12:35:00.137Z,1.00
2022-08-30T12:37:30.585Z,1.00
2022-08-30T12:40:07.611Z,1.00
2022-08-30T12:42:37.743Z,1.00
2022-08-30T12:45:12.556Z,1.00
2022-08-30T12:47:44.991Z,1.00
2022-08-30T12:50:16.790Z,1.00
2022-08-30T12:52:56.385Z,1.00
2022-08-30T12:55:30.810Z,1.00
2022-08-30T12:58:17.286Z,1.00
2022-08-30T13:00:46.286Z,1.00
2022-08-30T13:03:36.927Z,1.00
2022-08-30T13:06:08.004Z,1.00
2022-08-30T13:09:04.481Z,1.00
2022-08-30T13:11:31.676Z,1.00
2022-08-30T13:14:30.237Z,1.00
2022-08-30T13:17:08.597Z,1.00
2022-08-30T13:19:39.608Z,1.00
2022-08-30T13:22:29.458Z,1.00
2022-08-30T13:24:57.583Z,1.00
2022-08-30T13:27:25.909Z,1.00
2022-08-30T13:29:53.165Z,1.00
2022-08-30T13:32:21.347Z,1.00
2022-08-30T13:34:48.599Z,1.00
2022-08-30T13:40:11.989Z,1.00
2022-08-30T13:42:42.030Z,1.00
2022-08-30T13:47:57.757Z,1.00
2022-08-30T13:50:24.701Z,1.00
2022-08-30T13:52:52.661Z,1.00
2022-08-30T13:55:19.709Z,1.00
2022-08-30T13:57:55.224Z,1.00
2022-08-30T14:00:24.933Z,1.00
2022-08-30T14:03:00.089Z,1.00
2022-08-30T14:05:51.497Z,1.00
2022-08-30T14:08:46.349Z,1.00
2022-08-30T14:11:18.948Z,1.00
2022-08-30T14:16:36.134Z,1.00
2022-08-30T14:19:04.156Z,1.00
2022-08-30T14:21:33.048Z,1.00
2022-08-30T14:24:00.238Z,1.00
2022-08-30T14:26:45.818Z,1.00
2022-08-30T14:29:15.127Z,1.00
2022-08-30T14:31:42.923Z,1.00
2022-08-30T14:34:11.842Z,1.00
2022-08-30T14:36:41.324Z,1.00
2022-08-30T14:39:11.827Z,1.00
2022-08-30T14:41:48.156Z,1.00
2022-08-30T14:44:17.049Z,1.00
2022-08-30T14:46:44.378Z,1.00
2022-08-30T14:49:13.023Z,1.00
2022-08-30T14:51:40.802Z,1.00
2022-08-30T14:54:08.127Z,1.00
2022-08-30T14:56:37.874Z,1.00
2022-08-30T14:59:05.616Z,1.00
2022-08-30T15:01:33.280Z,1.00
2022-08-30T15:04:04.321Z,1.00
2022-08-30T15:06:35.334Z,1.00
2022-08-30T15:09:05.321Z,1.00
2022-08-30T15:11:33.204Z,1.00
2022-08-30T15:14:01.854Z,1.00
2022-08-30T15:16:35.898Z,1.00
2022-08-30T15:19:03.937Z,1.00
2022-08-30T15:21:34.544Z,1.00
2022-08-30T15:24:04.497Z,1.00
2022-08-30T15:26:32.005Z,1.00
2022-08-30T15:28:59.447Z,1.00
2022-08-30T15:31:29.159Z,1.00
2022-08-30T15:33:56.665Z,1.00
2022-08-30T15:36:24.299Z,1.00
2022-08-30T15:38:55.537Z,1.00
2022-08-30T15:41:23.511Z,1.00
2022-08-30T15:43:50.643Z,1.00
2022-08-30T15:46:29.489Z,1.00
2022-08-30T15:49:01.943Z,1.00
2022-08-30T15:51:30.650Z,1.00
2022-08-30T15:53:58.598Z,1.00
2022-08-30T15:56:25.766Z,1.00
2022-08-30T15:58:53.191Z,1.00
2022-08-30T16:01:22.882Z,1.00
2022-08-30T16:03:57.913Z,1.00
2022-08-30T16:06:29.136Z,1.00
2022-08-30T16:08:56.612Z,1.00
2022-08-30T16:11:25.167Z,1.00
2022-08-30T16:13:54.078Z,1.00
2022-08-30T16:16:22.814Z,1.00
2022-08-30T16:18:53.840Z,1.00
2022-08-30T16:21:30.183Z,1.00
2022-08-30T16:23:59.050Z,1.00
2022-08-30T16:26:29.519Z,1.00
2022-08-30T16:28:57.535Z,1.00
2022-08-30T16:31:26.703Z,1.00
2022-08-30T16:33:54.515Z,1.00
2022-08-30T16:36:23.116Z,1.00
2022-08-30T16:38:53.470Z,1.00
2022-08-30T16:41:22.601Z,1.00
2022-08-30T16:43:53.585Z,1.00
2022-08-30T16:46:27.200Z,1.00
2022-08-30T16:48:57.341Z,1.00
2022-08-30T16:51:27.541Z,1.00
2022-08-30T16:53:56.395Z,1.00
2022-08-30T16:56:25.196Z,1.00
2022-08-30T16:59:01.192Z,1.00
2022-08-30T17:01:29.476Z,1.00
2022-08-30T17:03:56.881Z,1.00
2022-08-30T17:06:23.854Z,1.00
2022-08-30T17:08:52.595Z,1.00
2022-08-30T17:11:24.051Z,1.00
2022-08-30T17:13:51.394Z,1.00
2022-08-30T17:16:27.316Z,1.00
2022-08-30T17:18:55.974Z,1.00
2022-08-30T17:21:27.539Z,1.00
2022-08-30T17:23:54.542Z,1.00
2022-08-30T17:26:28.582Z,1.00
2022-08-30T17:28:55.928Z,1.00
2022-08-30T17:31:23.172Z,1.00
2022-08-30T17:33:50.670Z,1.00
2022-08-30T17:36:17.738Z,1.00
2022-08-30T17:38:46.007Z,1.00
2022-08-30T17:41:13.645Z,1.00
2022-08-30T17:43:40.678Z,1.00
2022-08-30T17:46:10.766Z,1.00
2022-08-30T17:48:38.887Z,1.00
2022-08-30T17:51:07.014Z,1.00
2022-08-30T17:53:35.739Z,1.00
2022-08-30T17:56:06.590Z,1.00
2022-08-30T17:58:34.825Z,1.00
2022-08-30T18:01:11.441Z,1.00
2022-08-30T18:03:38.987Z,1.00
2022-08-30T18:06:07.189Z,1.00
2022-08-30T18:08:35.358Z,1.00
2022-08-30T18:11:04.163Z,1.00
2022-08-30T18:13:33.025Z,1.00
2022-08-30T18:16:03.733Z,1.00
2022-08-30T18:18:31.961Z,1.00
2022-08-30T18:20:59.925Z,1.00
2022-08-30T18:23:27.523Z,1.00
2022-08-30T18:26:02.483Z,1.00
2022-08-30T18:28:29.765Z,1.00
2022-08-30T18:30:57.140Z,1.00
2022-08-30T18:33:28.507Z,1.00
2022-08-30T18:35:56.330Z,1.00
2022-08-30T18:38:24.243Z,1.00
2022-08-30T18:40:52.730Z,1.00
2022-08-30T18:43:24.560Z,1.00
2022-08-30T18:46:01.276Z,1.00
2022-08-30T18:48:28.597Z,1.00
2022-08-30T18:50:55.582Z,1.00
2022-08-30T18:53:29.147Z,1.00
2022-08-30T18:55:57.386Z,1.00
2022-08-30T18:58:24.392Z,1.00
2022-08-30T19:00:51.499Z,1.00
2022-08-30T19:03:19.405Z,1.00
2022-08-30T19:05:46.863Z,1.00
2022-08-30T19:08:14.462Z,1.00
2022-08-30T19:10:41.659Z,1.00
2022-08-30T19:13:10.173Z,1.00
2022-08-30T19:15:37.685Z,1.00
2022-08-30T19:18:16.582Z,1.00
2022-08-30T19:20:44.807Z,1.00
2022-08-30T19:23:12.039Z,1.00
2022-08-30T19:25:42.871Z,1.00
2022-08-30T19:28:10.388Z,1.00
2022-08-30T19:30:38.218Z,1.00
2022-08-30T19:33:05.820Z,1.00
2022-08-30T19:35:35.693Z,1.00
2022-08-30T19:38:02.762Z,1.00
2022-08-30T19:40:30.020Z,1.00
2022-08-30T19:42:58.340Z,1.00
2022-08-30T19:45:26.031Z,1.00
2022-08-30T19:47:53.669Z,1.00
2022-08-30T19:50:22.040Z,1.00
2022-08-30T19:55:37.271Z,1.00
2022-08-30T19:58:04.925Z,1.00
2022-08-30T20:00:32.215Z,1.00
2022-08-30T20:02:59.872Z,1.00
2022-08-30T20:05:28.815Z,1.00
2022-08-30T20:07:58.299Z,1.00
2022-08-30T20:10:26.257Z,1.00
2022-08-30T20:12:53.382Z,1.00
2022-08-30T20:15:20.848Z,1.00
2022-08-30T20:18:05.737Z,1.00
2022-08-30T20:20:33.745Z,1.00
2022-08-30T20:23:04.479Z,1.00
2022-08-30T20:25:31.912Z,1.00
2022-08-30T20:27:59.455Z,1.00
2022-08-30T20:30:27.316Z,1.00
2022-08-30T20:32:54.581Z,1.00
2022-08-30T20:35:26.618Z,1.00
2022-08-30T20:37:53.773Z,1.00
2022-08-30T20:40:21.055Z,1.00
2022-08-30T20:42:47.988Z,1.00
2022-08-30T20:45:17.098Z,1.00
2022-08-30T20:47:44.857Z,1.00
2022-08-30T20:50:15.085Z,1.00
2022-08-30T20:52:42.751Z,1.00
2022-08-30T20:55:11.461Z,1.00
2022-08-30T20:57:39.746Z,1.00
2022-08-30T21:00:11.842Z,1.00
2022-08-30T21:02:46.519Z,1.00
2022-08-30T21:05:16.288Z,1.00
2022-08-30T21:07:44.760Z,1.00
2022-08-30T21:10:13.372Z,1.00
2022-08-30T21:12:40.384Z,1.00
2022-08-30T21:15:33.935Z,1.00
2022-08-30T21:17:55.317Z,1.00
2022-08-30T21:20:22.647Z,1.00
2022-08-30T21:22:49.627Z,1.00
2022-08-30T21:25:16.714Z,1.00
2022-08-30T21:27:44.070Z,1.00
2022-08-30T21:30:12.922Z,1.00
2022-08-30T21:32:40.189Z,1.00
2022-08-30T21:35:26.949Z,1.00
2022-08-30T21:37:54.255Z,1.00
2022-08-30T21:40:21.895Z,1.00
2022-08-30T21:42:48.999Z,1.00
2022-08-30T21:45:16.155Z,1.00
2022-08-30T21:47:43.399Z,1.00
2022-08-30T21:50:10.596Z,1.00
2022-08-30T21:52:37.532Z,1.00
2022-08-30T21:55:05.220Z,1.00
2022-08-30T21:57:32.950Z,1.00
2022-08-30T22:00:00.000Z,1.00
2022-08-30T22:02:28.829Z,1.00
2022-08-30T22:04:56.097Z,1.00
2022-08-30T22:07:23.033Z,1.00
2022-08-30T22:09:49.935Z,1.00
2022-08-30T22:12:17.860Z,1.00
2022-08-30T22:14:44.843Z,1.80
2022-08-30T22:17:12.868Z,2.40
2022-08-30T22:19:39.868Z,3.50
2022-08-30T22:22:06.979Z,4.10
2022-08-30T22:24:33.859Z,5.60
2022-08-30T22:27:05.696Z,6.00
2022-08-30T22:29:33.086Z,6.30
2022-08-30T22:32:00.338Z,7.60
2022-08-30T22:34:27.945Z,9.00
2022-08-30T22:36:54.919Z,9.50
2022-08-30T22:39:22.029Z,10.80
2022-08-30T22:41:49.047Z,12.00
2022-08-30T22:44:16.021Z,13.20
2022-08-30T22:46:43.611Z,14.00
2022-08-30T22:49:11.831Z,15.00
2022-08-30T22:51:40.261Z,16.40
2022-08-30T22:54:08.878Z,16.80
2022-08-30T22:56:37.727Z,17.20
2022-08-30T22:59:05.847Z,18.40
2022-08-30T23:01:38.677Z,18.20
2022-08-30T23:04:08.107Z,18.70
2022-08-30T23:06:35.578Z,19.50
2022-08-30T23:09:03.605Z,20.00
2022-08-30T23:11:31.872Z,20.60
2022-08-30T23:14:01.950Z,21.00
2022-08-30T23:24:52.267Z,24.00
2022-08-30T23:27:37.991Z,24.80
2022-08-30T23:30:25.078Z,25.80
2022-08-30T23:33:10.767Z,26.00
2022-08-30T23:35:56.505Z,26.50
2022-08-30T23:38:42.350Z,26.50
2022-08-30T23:41:33.854Z,27.90
2022-08-30T23:44:19.845Z,28.30
2022-08-30T23:47:05.179Z,29.10
2022-08-30T23:49:50.804Z,29.50
2022-08-30T23:52:36.424Z,29.70
2022-08-30T23:55:22.402Z,30.60
2022-08-30T23:58:07.825Z,30.20
